Baker, NV (89311)

7:33 PM PDT on June 28, 2017 (GMT -0700)
Ely | | Change Station
Active Advisory: Fire Weather Warning

Elev 6260 ft 39.30 °N, 114.84 °W | Updated 40 minutes ago

Clear
Clear
81 °F
Feels Like 81 °F
N
14
Wind Variable Wind from NW

Today
High -- | Low -- °F
--% Chance of Precip.
Yesterday
High -- | Low -- °F
Precip. -- in
Pressure 29.72 in
Visibility 10.0 miles
Clouds Clear
Dew Point 27 °F
Humidity 14%
Rainfall 0.00 in
Snow Depth Not available.
5:13 AM 8:06 PM
Waxing Crescent, 31% visible
METAR KELY 290153Z AUTO 31012KT 10SM CLR 27/M03 A3000 RMK AO2 SLP063 T02721028
Pressure 29.72 in
Visibility 10.0 miles
Clouds Clear
Dew Point 27 °F
Humidity 14%
Rainfall 0.00 in
Snow Depth Not available.
5:13 AM 8:06 PM
Waxing Crescent, 31% visible
METAR KELY 290153Z AUTO 31012KT 10SM CLR 27/M03 A3000 RMK AO2 SLP063 T02721028

Get Your Daily Forecast Email!

Thanks for signing up!

Be on the lookout for a verification email in your inbox.

You'll start receiving severe weather alerts in your inbox..

×

10-Day Weather Forecast

Almanac

Astronomy

Jun. 28, 2017 Rise Set
Actual Time
Civil Twilight
Nautical Twilight
Astronomical Twilight
Moon
Length of Visible Light
Length of Day
Tomorrow will be .
, % of the Moon is Illuminated

Today's Extremes

State Highs State Lows

Community

WunderPhotos

Category 6

Welcome to Category 6. This is the collective home for Weather Underground's featured writeups by Dr. Jeff Masters (right), Bob Henson (left), Chris Burt, and other regular contributors.

Nearby

Air Quality

  Air Quality AQ Index Pollutant
Not available.

Snow Depth

Station Depth Elevation

Earthquake Activity

City Distance Mag. Time & Date
Minimum magnitude displayed is 2.5.

Coastal Water Temperatures

Place Temperature

Stations

Nearby Weather Stations

Station Location Temp. Windchill Dew Point Humidity Wind Precip. Elev Updated Type
                   

Watches & Warnings

Fire Weather Warning
Issued: 2:11 PM PDT Jun. 28, 2017 – National Weather Service

... Red flag warning in effect until 9 PM PDT Wednesday for gusty
winds and low relative humidity for fire weather zones
454... 455... 457 and 470...

* affected area... fire weather zone 454 central Lander and
Eureka counties... fire weather zone 455 White Pine County...
fire weather zone 457 northern Nye County/Lander and Eureka
counties south of Highway 50 and fire weather zone 470 eastern
Elko County.

* Winds... west to northwest 10 to 20 mph with gusts up to 35 mph.

* Relative humidity... as low as 7 percent.

* Impacts... the combination of gusty winds and low humidity
will create critical fire weather conditions.

Precautionary/preparedness actions...

A red flag warning means that critical fire weather conditions
are either occurring now, or will shortly. A combination of
strong winds, low relative humidity, and warm temperatures can
contribute to extreme fire behavior.



Cs